Time;durP1;ratioP1;P1;durP2;ratioP2;P2;SDS_P1;SDS_P2;PMS_P1;PMS_P2;Temp;Humidity;BMP_temperature;BMP_pressure;BME280_temperature;BME280_humidity;BME280_pressure;Samples;Min_cycle;Max_cycle;Signal;HPM_P1;HPM_P2
2023/01/04 00:00:03;;;;;;;11.52;3.45;;;;;;;7.31;100.00;162476.38;5050082;28;20036;-59
2023/01/04 00:02:28;;;;;;;5.00;3.80;;;;;;;7.34;100.00;162484.47;5048617;28;20040;-60
2023/01/04 00:04:53;;;;;;;12.20;4.68;;;;;;;7.33;100.00;162481.75;5057445;28;20028;-60
2023/01/04 00:07:19;;;;;;;5.57;3.58;;;;;;;7.38;100.00;162493.91;5067825;28;20481;-59
2023/01/04 00:09:44;;;;;;;7.80;2.63;;;;;;;7.42;100.00;162504.66;5070213;28;20025;-59
2023/01/04 00:12:09;;;;;;;9.27;3.63;;;;;;;7.43;100.00;162507.34;5068107;28;20044;-59
2023/01/04 00:14:35;;;;;;;7.00;4.30;;;;;;;7.46;100.00;162515.44;5070155;28;20025;-59
2023/01/04 00:17:00;;;;;;;8.60;3.50;;;;;;;7.47;100.00;162518.16;5067249;28;20419;-59
2023/01/04 00:19:25;;;;;;;7.47;4.28;;;;;;;7.49;100.00;162523.50;5073501;28;20114;-59
2023/01/04 00:21:52;;;;;;;14.05;4.32;;;;;;;7.47;100.00;162518.16;5072703;28;20044;-59
2023/01/04 00:24:17;;;;;;;8.20;3.00;;;;;;;7.41;100.00;162502.00;5074003;28;20483;-59
2023/01/04 00:26:43;;;;;;;8.95;2.95;;;;;;;7.41;100.00;162502.00;5071935;28;20047;-59
2023/01/04 00:29:11;;;;;;;8.80;5.15;;;;;;;7.44;100.00;162510.06;5074086;28;20084;-59
2023/01/04 00:31:36;;;;;;;10.25;3.35;;;;;;;7.43;100.00;162507.34;5072585;28;20060;-59
2023/01/04 00:34:03;;;;;;;13.75;4.65;;;;;;;7.41;100.00;162502.00;5073272;28;20032;-59
2023/01/04 00:36:30;;;;;;;6.20;3.92;;;;;;;7.34;100.00;162483.09;5072313;28;20120;-61
2023/01/04 00:39:06;;;;;;;5.10;4.47;;;;;;;7.17;100.00;162438.66;5074237;28;20024;-61
2023/01/04 00:41:38;;;;;;;7.72;4.90;;;;;;;7.30;100.00;162475.03;5072235;28;20387;-61
2023/01/04 00:44:07;;;;;;;5.90;3.50;;;;;;;7.29;100.00;162472.34;5073555;28;20020;-61
2023/01/04 00:46:33;;;;;;;9.20;4.43;;;;;;;7.29;100.00;162472.34;5072050;28;20040;-61
2023/01/04 00:48:59;;;;;;;10.02;4.18;;;;;;;7.21;100.00;162450.78;5073770;28;20032;-61
2023/01/04 00:51:24;;;;;;;12.52;4.22;;;;;;;7.21;100.00;162450.78;5072220;28;20058;-61
2023/01/04 00:53:51;;;;;;;3.78;3.42;;;;;;;7.18;100.00;162442.72;5073689;28;20162;-61
2023/01/04 00:56:17;;;;;;;11.75;5.15;;;;;;;7.08;100.00;162415.78;5070965;28;20041;-62
2023/01/04 00:58:42;;;;;;;10.32;4.50;;;;;;;7.02;100.00;162399.63;5073596;28;20086;-62
2023/01/04 01:01:09;;;;;;;8.43;3.88;;;;;;;6.95;100.00;162383.47;5072056;28;20039;-61
2023/01/04 01:03:34;;;;;;;6.80;4.25;;;;;;;6.95;100.00;162383.47;5072958;28;20044;-60
2023/01/04 01:06:05;;;;;;;9.15;3.63;;;;;;;6.98;100.00;162391.53;5071368;28;20102;-60
2023/01/04 01:08:32;;;;;;;9.00;3.83;;;;;;;6.98;100.00;162390.19;5073294;28;20483;-60
2023/01/04 01:11:03;;;;;;;12.00;4.28;;;;;;;6.90;100.00;162369.97;5071844;28;20040;-60
2023/01/04 01:13:28;;;;;;;10.02;5.22;;;;;;;6.96;100.00;162384.78;5073340;28;20464;-61
2023/01/04 01:15:53;;;;;;;6.85;3.72;;;;;;;6.95;100.00;162383.47;5071316;28;20037;-60
2023/01/04 01:18:19;;;;;;;8.40;4.55;;;;;;;6.96;100.00;162386.13;5072644;28;20486;-61
2023/01/04 01:20:45;;;;;;;18.33;6.07;;;;;;;6.99;100.00;162394.22;5071906;28;20037;-60
2023/01/04 01:23:14;;;;;;;6.93;4.50;;;;;;;6.91;100.00;162372.66;5073040;28;20039;-60
2023/01/04 01:25:40;;;;;;;9.65;4.82;;;;;;;6.97;100.00;162388.81;5070807;28;20064;-60
2023/01/04 01:28:05;;;;;;;5.68;4.43;;;;;;;6.95;100.00;162382.09;5072746;28;20086;-60
2023/01/04 01:30:31;;;;;;;9.57;5.38;;;;;;;6.92;100.00;162374.03;5070312;28;20024;-60
2023/01/04 01:32:56;;;;;;;6.53;4.70;;;;;;;6.90;100.00;162369.97;5072979;28;20040;-59
2023/01/04 01:35:21;;;;;;;12.65;4.93;;;;;;;6.89;100.00;162367.28;5070273;28;20032;-60
2023/01/04 01:37:47;;;;;;;10.95;4.53;;;;;;;6.91;100.00;162372.66;5072719;28;20016;-60
2023/01/04 01:40:12;;;;;;;12.65;5.07;;;;;;;6.91;100.00;162371.34;5072645;28;20024;-60
2023/01/04 01:42:37;;;;;;;7.07;4.47;;;;;;;6.88;100.00;162364.63;5071000;28;20043;-60
2023/01/04 01:45:10;;;;;;;10.45;6.05;;;;;;;6.86;100.00;162357.84;5072555;28;20605;-61
2023/01/04 01:47:42;;;;;;;7.97;4.80;;;;;;;6.84;100.00;162353.81;5071039;28;20127;-60
2023/01/04 01:50:28;;;;;;;9.77;4.30;;;;;;;6.85;100.00;162356.53;5072520;28;20020;-60
2023/01/04 01:52:57;;;;;;;11.98;5.75;;;;;;;6.91;100.00;162372.66;5071106;28;20045;-60
2023/01/04 01:55:23;;;;;;;10.18;4.53;;;;;;;6.90;100.00;162369.97;5070128;28;20028;-60
2023/01/04 01:57:49;;;;;;;11.50;5.18;;;;;;;6.88;100.00;162364.63;5036371;28;20028;-60
2023/01/04 02:00:15;;;;;;;13.88;6.03;;;;;;;6.91;100.00;162372.66;5052166;28;20079;-60
2023/01/04 02:03:00;;;;;;;11.50;4.43;;;;;;;6.92;100.00;162375.38;5050379;28;20057;-60
2023/01/04 02:05:27;;;;;;;9.20;4.80;;;;;;;6.96;100.00;162386.13;5051837;28;20031;-60
2023/01/04 02:07:53;;;;;;;7.20;4.68;;;;;;;7.01;100.00;162398.25;5052116;28;20029;-60
2023/01/04 02:10:18;;;;;;;7.70;5.22;;;;;;;6.99;100.00;162392.91;5050311;28;20025;-60
2023/01/04 02:12:44;;;;;;;9.23;6.28;;;;;;;6.99;100.00;162394.22;5052047;28;20040;-60
2023/01/04 02:15:10;;;;;;;22.15;6.40;;;;;;;7.04;100.00;162404.97;5051670;28;20039;-60
2023/01/04 02:17:47;;;;;;;11.38;4.90;;;;;;;7.05;100.00;162409.03;5050198;28;20500;-60
2023/01/04 02:20:35;;;;;;;14.80;5.82;;;;;;;7.09;100.00;162419.81;5051907;28;20031;-60
2023/01/04 02:23:00;;;;;;;5.38;4.70;;;;;;;7.11;100.00;162423.88;5050724;28;20052;-60
2023/01/04 02:25:44;;;;;;;9.35;5.75;;;;;;;7.20;100.00;162446.75;5049930;28;20127;-59
2023/01/04 02:28:35;;;;;;;7.13;5.97;;;;;;;7.27;100.00;162466.94;5051916;28;20102;-59
2023/01/04 02:31:09;;;;;;;8.25;5.88;;;;;;;7.33;100.00;162480.44;5050546;28;20484;-58
2023/01/04 02:33:53;;;;;;;5.97;4.55;;;;;;;7.35;100.00;162485.78;5051407;28;20602;-59
2023/01/04 02:36:29;;;;;;;9.75;4.43;;;;;;;7.38;100.00;162493.91;5051046;28;20515;-60
2023/01/04 02:39:13;;;;;;;6.65;5.40;;;;;;;7.45;100.00;162514.06;5051736;28;20029;-59
2023/01/04 02:41:53;;;;;;;16.40;4.95;;;;;;;7.53;100.00;162532.94;5049590;28;20033;-59
2023/01/04 02:50:29;;;;;;;7.03;4.65;;;;;;;7.62;100.00;162558.56;5029623;28;20120;-61
2023/01/04 02:50:36;;;;;;;7.00;5.55;;;;;;;7.74;100.00;162588.19;5031365;28;20040;-61
2023/01/04 02:53:09;;;;;;;11.93;6.07;;;;;;;7.74;100.00;162588.19;5030316;28;20065;-61
2023/01/04 02:55:55;;;;;;;5.85;4.43;;;;;;;7.80;100.00;162604.34;5043986;28;20036;-61
2023/01/04 02:58:35;;;;;;;12.10;5.57;;;;;;;7.85;100.00;162617.84;5071282;28;20422;-61
2023/01/04 03:08:18;;;;;;;4.65;4.25;;;;;;;8.03;100.00;162665.00;5069844;28;20062;-61
2023/01/04 03:10:52;;;;;;;5.60;3.75;;;;;;;8.08;100.00;162677.09;5007141;28;20045;-62
2023/01/04 03:13:28;;;;;;;6.45;3.75;;;;;;;8.11;100.00;162685.19;5044794;28;20488;-61
2023/01/04 03:16:14;;;;;;;3.97;3.60;;;;;;;8.17;100.00;162701.38;5049157;28;20075;-61
2023/01/04 03:18:43;;;;;;;4.47;4.18;;;;;;;8.18;100.00;162704.06;5050298;28;20114;-61
2023/01/04 03:21:12;;;;;;;7.50;3.50;;;;;;;8.17;100.00;162701.38;5054880;28;20407;-61
2023/01/04 03:35:36;;;;;;;5.88;5.05;;;;;;;8.24;100.00;162718.91;5068594;28;20062;-61
2023/01/04 03:50:37;;;;;;;5.97;4.78;;;;;;;8.46;100.00;162776.84;5069652;28;20040;-61
2023/01/04 03:53:04;;;;;;;5.68;4.20;;;;;;;8.48;100.00;162782.28;5072042;28;20066;-61
2023/01/04 03:55:30;;;;;;;6.88;3.65;;;;;;;8.49;100.00;162783.69;5072656;28;20103;-61
2023/01/04 03:57:57;;;;;;;4.80;4.05;;;;;;;8.52;100.00;162793.09;5074530;28;20028;-61
2023/01/04 04:00:22;;;;;;;10.48;4.32;;;;;;;8.58;100.00;162807.91;5073056;28;20024;-61
2023/01/04 04:02:48;;;;;;;5.38;3.53;;;;;;;8.54;100.00;162798.47;5074037;28;20567;-62
2023/01/04 04:10:47;;;;;;;6.72;3.53;;;;;;;8.67;100.00;162832.19;5073138;28;20044;-62
2023/01/04 04:13:13;;;;;;;5.32;3.40;;;;;;;8.70;100.00;162838.91;5074525;28;20025;-62
2023/01/04 04:15:38;;;;;;;4.05;3.60;;;;;;;8.70;100.00;162838.91;5072367;28;20044;-63
2023/01/04 04:18:04;;;;;;;4.07;3.67;;;;;;;8.70;100.00;162840.28;5073670;28;20033;-63
2023/01/04 04:20:29;;;;;;;4.78;3.28;;;;;;;8.74;100.00;162849.72;5072946;28;20020;-62
2023/01/04 04:22:55;;;;;;;3.40;3.10;;;;;;;8.75;100.00;162852.38;5074405;28;20036;-62
2023/01/04 04:25:20;;;;;;;3.88;3.55;;;;;;;8.78;100.00;162860.50;5071932;28;20024;-62
2023/01/04 04:27:45;;;;;;;5.38;3.03;;;;;;;8.78;100.00;162860.50;5074356;28;20028;-62
2023/01/04 04:30:11;;;;;;;5.53;3.33;;;;;;;8.82;100.00;162869.94;5074008;28;20028;-63
2023/01/04 04:32:36;;;;;;;5.25;3.83;;;;;;;8.83;100.00;162872.63;5072148;28;20503;-63
2023/01/04 04:35:01;;;;;;;6.47;3.72;;;;;;;8.84;100.00;162876.66;5073866;28;20467;-62
2023/01/04 04:37:29;;;;;;;5.80;4.45;;;;;;;8.90;100.00;162891.50;5072375;28;20051;-62
2023/01/04 04:39:55;;;;;;;4.10;3.80;;;;;;;8.91;100.00;162894.22;5073935;28;20034;-62
2023/01/04 04:42:20;;;;;;;5.20;4.70;;;;;;;8.91;100.00;162894.22;5072151;28;20146;-62
2023/01/04 04:44:45;;;;;;;4.22;3.83;;;;;;;8.97;100.00;162909.06;5055261;28;20113;-62
2023/01/04 04:47:10;;;;;;;4.07;3.70;;;;;;;8.99;100.00;162914.41;5051725;28;20095;-62
2023/01/04 04:49:36;;;;;;;6.63;3.50;;;;;;;8.98;100.00;162911.72;5053786;28;20491;-62
2023/01/04 04:52:01;;;;;;;4.60;3.15;;;;;;;9.03;100.00;162925.22;5052307;28;20494;-62
2023/01/04 04:54:27;;;;;;;7.93;4.10;;;;;;;9.00;100.00;162918.50;5053285;28;20041;-62
2023/01/04 04:56:52;;;;;;;3.15;2.95;;;;;;;9.03;100.00;162926.56;5052082;28;20037;-61
2023/01/04 04:59:17;;;;;;;5.75;3.72;;;;;;;9.04;100.00;162929.25;5053685;28;20021;-60
2023/01/04 05:01:43;;;;;;;3.20;3.00;;;;;;;9.06;100.00;162933.28;5051716;28;20086;-60
2023/01/04 05:04:08;;;;;;;3.60;3.30;;;;;;;9.07;100.00;162936.00;5052857;28;20040;-60
2023/01/04 05:06:34;;;;;;;4.47;4.07;;;;;;;9.08;100.00;162938.69;5052172;28;20049;-60
2023/01/04 05:08:59;;;;;;;3.58;3.38;;;;;;;9.11;100.00;162946.81;5053377;28;20035;-60
2023/01/04 05:14:09;;;;;;;4.18;3.78;;;;;;;9.14;100.00;162954.88;5069278;28;20478;-59
2023/01/04 05:16:34;;;;;;;3.97;3.50;;;;;;;9.16;100.00;162958.91;5058939;28;20069;-60
2023/01/04 05:19:00;;;;;;;4.35;4.00;;;;;;;9.17;100.00;162961.59;5072029;28;20043;-60
2023/01/04 05:21:25;;;;;;;4.18;3.92;;;;;;;9.14;100.00;162954.88;5066083;28;20048;-59
2023/01/04 05:23:50;;;;;;;4.63;4.22;;;;;;;9.12;100.00;162949.47;5071601;28;20399;-59
2023/01/04 05:26:16;;;;;;;4.63;4.32;;;;;;;9.12;100.00;162949.47;5051395;28;20108;-60
2023/01/04 05:28:41;;;;;;;4.63;4.32;;;;;;;9.13;100.00;162952.16;5062802;28;20032;-62
2023/01/04 05:31:06;;;;;;;14.75;4.80;;;;;;;9.14;100.00;162953.53;5051951;28;20037;-62
2023/01/04 05:33:32;;;;;;;5.00;4.60;;;;;;;9.15;100.00;162957.56;5047366;28;20018;-62
2023/01/04 05:36:02;;;;;;;4.82;4.40;;;;;;;9.15;100.00;162956.25;5042145;28;20033;-62
2023/01/04 05:38:28;;;;;;;4.20;3.90;;;;;;;9.16;100.00;162960.28;5052483;28;20111;-62
2023/01/04 05:40:54;;;;;;;4.28;4.07;;;;;;;9.18;100.00;162965.69;5054571;28;20041;-59
2023/01/04 05:43:20;;;;;;;4.85;4.45;;;;;;;9.24;100.00;162979.16;5052695;28;20490;-61
2023/01/04 05:45:48;;;;;;;5.00;4.47;;;;;;;9.25;100.00;162983.19;5050779;28;20041;-61
2023/01/04 05:48:13;;;;;;;4.63;4.22;;;;;;;9.26;100.00;162984.56;5052452;28;20067;-61
2023/01/04 05:50:38;;;;;;;5.07;4.43;;;;;;;9.26;100.00;162984.56;5051157;28;20427;-61
2023/01/04 05:53:05;;;;;;;5.28;4.88;;;;;;;9.26;100.00;162984.56;5052124;28;20197;-60
2023/01/04 05:55:30;;;;;;;5.30;4.90;;;;;;;9.28;100.00;162989.91;5051202;28;20033;-60
2023/01/04 05:57:56;;;;;;;4.97;4.65;;;;;;;9.28;100.00;162989.91;5052462;28;20032;-60
2023/01/04 06:00:21;;;;;;;5.28;4.72;;;;;;;9.32;100.00;163000.75;5050435;28;20840;-60
2023/01/04 06:02:46;;;;;;;8.85;6.53;;;;;;;9.30;100.00;162995.34;5052314;28;20099;-60
2023/01/04 06:05:12;;;;;;;4.93;4.53;;;;;;;9.32;100.00;163002.06;5052520;28;20017;-60
2023/01/04 06:07:39;;;;;;;4.28;3.97;;;;;;;9.32;100.00;163000.75;5050380;28;20418;-60
2023/01/04 06:10:09;;;;;;;5.07;4.68;;;;;;;9.31;100.00;162999.38;5051991;28;20035;-61
2023/01/04 06:12:34;;;;;;;4.13;3.72;;;;;;;9.34;100.00;163006.16;5050462;28;20523;-60
2023/01/04 06:15:00;;;;;;;6.10;4.50;;;;;;;9.35;100.00;163008.81;5051661;28;20025;-60
2023/01/04 06:17:25;;;;;;;4.63;4.22;;;;;;;9.38;100.00;163016.91;5050202;28;20540;-60
2023/01/04 06:19:50;;;;;;;4.30;4.00;;;;;;;9.41;100.00;163025.03;5052162;28;20705;-60
2023/01/04 06:22:16;;;;;;;4.35;4.05;;;;;;;9.39;100.00;163019.63;5050083;28;20408;-60
2023/01/04 06:24:41;;;;;;;5.00;4.60;;;;;;;9.40;100.00;163022.31;5067296;28;20043;-60
2023/01/04 06:27:06;;;;;;;5.05;4.65;;;;;;;9.40;100.00;163022.31;5050308;28;20037;-62
2023/01/04 06:29:32;;;;;;;4.88;4.38;;;;;;;9.38;100.00;163016.91;5051526;28;20025;-62
2023/01/04 06:31:57;;;;;;;4.43;4.10;;;;;;;9.42;100.00;163026.34;5050461;28;20393;-61
2023/01/04 06:34:23;;;;;;;5.00;4.50;;;;;;;9.43;100.00;163030.38;5051782;28;20025;-61
2023/01/04 06:36:48;;;;;;;4.80;4.40;;;;;;;9.42;100.00;163027.69;5049878;28;20042;-63
2023/01/04 06:39:13;;;;;;;5.75;5.25;;;;;;;9.45;100.00;163035.81;5051340;28;20078;-61
2023/01/04 06:41:39;;;;;;;6.90;6.05;;;;;;;9.46;100.00;163038.50;5050405;28;20036;-60
2023/01/04 06:44:04;;;;;;;5.78;5.28;;;;;;;9.48;100.00;163043.91;5050981;28;20029;-61
2023/01/04 06:46:29;;;;;;;5.28;4.85;;;;;;;9.48;100.00;163043.91;5050260;28;20032;-59
2023/01/04 06:48:55;;;;;;;6.57;5.25;;;;;;;9.51;100.00;163051.97;5051577;28;20025;-59
2023/01/04 06:51:20;;;;;;;4.82;4.53;;;;;;;9.52;100.00;163054.69;5049548;28;20032;-59
2023/01/04 06:53:46;;;;;;;5.97;5.47;;;;;;;9.52;100.00;163054.69;5051364;28;20432;-60
2023/01/04 06:56:11;;;;;;;6.68;5.30;;;;;;;9.57;100.00;163065.50;5049776;28;20041;-59
2023/01/04 06:58:37;;;;;;;8.45;5.25;;;;;;;9.56;100.00;163062.78;5051100;28;20099;-59
2023/01/04 07:01:03;;;;;;;5.72;5.22;;;;;;;9.54;100.00;163058.72;5050986;28;20025;-60
2023/01/04 07:03:28;;;;;;;4.25;3.95;;;;;;;9.56;100.00;163062.78;5049805;28;20052;-60
2023/01/04 07:05:53;;;;;;;8.13;5.20;;;;;;;9.59;100.00;163070.84;5051186;28;20025;-60
2023/01/04 07:08:19;;;;;;;5.97;5.47;;;;;;;9.60;100.00;163073.56;5049299;28;20518;-60
2023/01/04 07:10:45;;;;;;;5.32;4.93;;;;;;;9.60;100.00;163073.56;5051187;28;20025;-60
2023/01/04 07:13:10;;;;;;;5.75;4.85;;;;;;;9.62;100.00;163078.97;5049251;28;20041;-59
2023/01/04 07:15:36;;;;;;;5.18;4.88;;;;;;;9.64;100.00;163084.38;5050889;28;20036;-60
2023/01/04 07:18:01;;;;;;;5.72;5.22;;;;;;;9.66;100.00;163089.75;5049684;28;20083;-60
2023/01/04 07:20:26;;;;;;;5.22;4.93;;;;;;;9.70;100.00;163100.56;5050766;28;20033;-59
2023/01/04 07:22:52;;;;;;;7.45;6.85;;;;;;;9.74;100.00;163111.34;5049317;28;20124;-59
2023/01/04 07:25:18;;;;;;;6.32;5.68;;;;;;;9.76;100.00;163116.75;5050823;28;20047;-59
2023/01/04 07:27:43;;;;;;;7.28;6.55;;;;;;;9.81;100.00;163130.22;5049420;28;20040;-59
2023/01/04 07:30:09;;;;;;;5.97;5.47;;;;;;;9.87;100.00;163145.06;5050374;28;20028;-59
2023/01/04 07:32:35;;;;;;;6.15;5.68;;;;;;;9.91;100.00;163154.50;5048230;28;20120;-59
2023/01/04 07:35:00;;;;;;;5.90;5.50;;;;;;;9.93;100.00;163159.94;5049318;28;20033;-60
2023/01/04 07:37:26;;;;;;;6.57;6.07;;;;;;;9.92;100.00;163157.22;5047068;28;20037;-60
2023/01/04 07:39:51;;;;;;;6.63;5.35;;;;;;;9.99;100.00;163176.09;5050028;28;20028;-59
2023/01/04 07:42:18;;;;;;;17.25;6.43;;;;;;;10.04;100.00;163188.25;5048083;28;20033;-59
2023/01/04 07:44:44;;;;;;;5.57;5.05;;;;;;;10.07;100.00;163197.69;5049843;28;20060;-59
2023/01/04 07:47:09;;;;;;;5.03;4.57;;;;;;;10.13;100.00;163213.88;5046794;28;20049;-60
2023/01/04 07:49:35;;;;;;;6.10;5.50;;;;;;;10.13;100.00;163213.88;5049418;28;20048;-59
2023/01/04 07:52:00;;;;;;;7.15;5.40;;;;;;;10.16;100.00;163221.94;5047622;28;20048;-59
2023/01/04 07:54:26;;;;;;;6.95;6.45;;;;;;;10.16;100.00;163221.94;5050126;28;20472;-60
2023/01/04 07:56:51;;;;;;;5.68;5.05;;;;;;;10.16;100.00;163221.94;5048881;28;20516;-59
2023/01/04 07:59:19;;;;;;;7.00;6.20;;;;;;;10.18;100.00;163224.66;5050004;28;20029;-59
2023/01/04 08:01:45;;;;;;;6.03;5.43;;;;;;;10.19;100.00;163228.75;5049362;28;20064;-59
2023/01/04 08:04:12;;;;;;;6.32;5.47;;;;;;;10.20;100.00;163231.41;5049936;28;20053;-59
2023/01/04 08:06:38;;;;;;;9.02;5.60;;;;;;;10.21;100.00;163232.78;5048606;28;20037;-59
2023/01/04 08:09:04;;;;;;;6.53;5.93;;;;;;;10.23;100.00;163238.19;5050059;28;20036;-59
2023/01/04 08:11:30;;;;;;;5.88;5.45;;;;;;;10.22;100.00;163236.81;5048709;28;20044;-59
2023/01/04 08:13:55;;;;;;;11.07;6.28;;;;;;;10.22;100.00;163236.81;5050076;28;20021;-59
2023/01/04 08:16:30;;;;;;;6.85;6.18;;;;;;;10.20;100.00;163230.06;5048709;28;20468;-59
2023/01/04 08:19:01;;;;;;;6.13;5.60;;;;;;;10.22;100.00;163235.47;5050465;28;20104;-59
2023/01/04 08:21:28;;;;;;;7.38;6.40;;;;;;;10.20;100.00;163231.41;5047777;28;20064;-59
2023/01/04 08:23:54;;;;;;;7.40;6.75;;;;;;;10.21;100.00;163232.78;5050114;28;20057;-59
2023/01/04 08:26:20;;;;;;;6.40;5.68;;;;;;;10.21;100.00;163232.78;5048401;28;20051;-59
2023/01/04 08:28:46;;;;;;;7.43;5.95;;;;;;;10.19;100.00;163227.38;5049753;28;20036;-59
2023/01/04 08:31:18;;;;;;;6.13;5.57;;;;;;;10.25;100.00;163244.94;5048457;28;20025;-59
2023/01/04 08:33:44;;;;;;;6.25;5.60;;;;;;;10.24;100.00;163242.22;5049851;28;20388;-60
2023/01/04 08:36:23;;;;;;;6.30;5.80;;;;;;;10.26;100.00;163246.25;5049723;28;20090;-60
2023/01/04 08:38:51;;;;;;;14.82;6.25;;;;;;;10.26;100.00;163246.25;5049077;28;20716;-60
2023/01/04 08:41:17;;;;;;;7.03;6.32;;;;;;;10.23;100.00;163238.19;5052329;28;20021;-59
2023/01/04 08:43:43;;;;;;;7.88;6.28;;;;;;;10.26;100.00;163246.25;5053550;28;20426;-61
2023/01/04 08:46:09;;;;;;;6.07;5.65;;;;;;;10.22;100.00;163235.47;5053486;28;20036;-60
2023/01/04 08:48:35;;;;;;;7.15;6.60;;;;;;;10.27;100.00;163250.34;5052409;28;20448;-59
2023/01/04 08:51:03;;;;;;;10.55;5.78;;;;;;;10.28;100.00;163251.66;5053559;28;20117;-59
2023/01/04 08:53:29;;;;;;;7.28;5.72;;;;;;;10.27;100.00;163248.97;5052150;28;20033;-59
2023/01/04 08:55:55;;;;;;;7.35;6.57;;;;;;;10.24;100.00;163240.91;5053726;28;20025;-59
2023/01/04 08:58:22;;;;;;;6.13;5.63;;;;;;;10.30;100.00;163257.09;5051656;28;20040;-59
2023/01/04 09:00:47;;;;;;;7.22;5.45;;;;;;;10.32;100.00;163262.44;5053443;28;20029;-59
2023/01/04 09:03:13;;;;;;;13.48;6.05;;;;;;;10.31;100.00;163259.78;5051786;28;20404;-59
2023/01/04 09:05:38;;;;;;;8.27;7.00;;;;;;;10.33;100.00;163265.16;5053305;28;20379;-59
2023/01/04 09:08:04;;;;;;;6.75;6.10;;;;;;;10.37;100.00;163274.66;5051733;28;20124;-60
2023/01/04 09:10:29;;;;;;;8.50;5.85;;;;;;;10.36;100.00;163273.25;5053367;28;20387;-59
2023/01/04 09:12:55;;;;;;;6.93;6.32;;;;;;;10.38;100.00;163277.34;5051664;28;20040;-59
2023/01/04 09:15:20;;;;;;;7.80;6.70;;;;;;;10.40;100.00;163284.09;5053108;28;20502;-59
2023/01/04 09:17:48;;;;;;;7.00;6.50;;;;;;;10.38;100.00;163278.72;5051810;28;20110;-59
2023/01/04 09:20:14;;;;;;;8.80;6.53;;;;;;;10.41;100.00;163286.81;5052707;28;20085;-59
2023/01/04 09:22:39;;;;;;;7.88;6.57;;;;;;;10.40;100.00;163284.09;5051631;28;20479;-59
2023/01/04 09:25:04;;;;;;;7.15;6.45;;;;;;;10.41;100.00;163286.81;5052946;28;20021;-59
2023/01/04 09:27:31;;;;;;;6.78;5.90;;;;;;;10.43;100.00;163292.22;5051368;28;20052;-60
2023/01/04 09:29:56;;;;;;;5.57;5.10;;;;;;;10.46;100.00;163298.97;5052968;28;20064;-60
2023/01/04 09:32:21;;;;;;;10.75;6.65;;;;;;;10.46;100.00;163300.28;5051505;28;20045;-60
2023/01/04 09:34:47;;;;;;;8.10;6.88;;;;;;;10.51;100.00;163312.44;5052829;28;20028;-60
2023/01/04 09:37:12;;;;;;;5.88;5.35;;;;;;;10.53;100.00;163317.84;5051188;28;20040;-60
2023/01/04 09:39:37;;;;;;;5.40;4.90;;;;;;;10.53;100.00;163316.53;5052933;28;20400;-58
2023/01/04 09:42:24;;;;;;;5.60;5.10;;;;;;;10.55;100.00;163321.88;5050723;28;20072;-58
2023/01/04 09:44:53;;;;;;;6.63;5.32;;;;;;;10.57;100.00;163328.66;5053080;28;20535;-58
2023/01/04 09:47:59;;;;;;;6.63;5.97;;;;;;;10.56;100.00;163325.97;5051211;28;20041;-58
2023/01/04 09:50:46;;;;;;;5.57;5.07;;;;;;;10.59;100.00;163332.72;5049276;28;20041;-58
2023/01/04 09:53:22;;;;;;;7.03;6.45;;;;;;;10.62;100.00;163342.16;5052054;28;20400;-58
2023/01/04 09:55:51;;;;;;;5.05;4.60;;;;;;;10.63;100.00;163344.88;5051166;28;20037;-59
2023/01/04 09:58:25;;;;;;;10.38;5.70;;;;;;;10.71;100.00;163365.09;5052188;28;20027;-59
2023/01/04 10:01:15;;;;;;;15.77;5.25;;;;;;;10.74;100.00;163373.22;5051112;28;20106;-59
2023/01/04 10:03:59;;;;;;;6.68;5.00;;;;;;;10.85;100.00;163400.19;5051968;28;20203;-59
2023/01/04 10:06:25;;;;;;;5.05;4.00;;;;;;;10.88;100.00;163408.28;5050856;28;20048;-58
2023/01/04 10:08:50;;;;;;;4.97;4.13;;;;;;;10.95;100.00;163427.19;5052702;28;20032;-58
2023/01/04 10:11:18;;;;;;;6.90;3.80;;;;;;;10.99;100.00;163436.66;5050131;28;20033;-58
2023/01/04 10:14:10;;;;;;;7.88;5.07;;;;;;;11.02;100.00;163446.09;5052275;28;20029;-58
2023/01/04 10:16:57;;;;;;;7.50;5.55;;;;;;;11.07;100.00;163459.59;5050913;28;20041;-58
2023/01/04 10:19:31;;;;;;;16.60;5.63;;;;;;;11.08;100.00;163462.28;5051402;28;20033;-58
2023/01/04 10:22:08;;;;;;;6.18;4.63;;;;;;;11.15;100.00;163478.47;5050726;28;20415;-58
2023/01/04 10:24:45;;;;;;;6.78;4.65;;;;;;;11.18;100.00;163486.59;5052055;28;20048;-58
2023/01/04 10:27:30;;;;;;;12.32;4.75;;;;;;;11.25;100.00;163505.50;5050170;28;20045;-58
2023/01/04 10:30:16;;;;;;;11.68;5.47;;;;;;;11.24;100.00;163502.81;5051986;28;20029;-58
2023/01/04 10:32:44;;;;;;;6.78;3.35;;;;;;;11.26;100.00;163508.22;5050178;28;20044;-58
2023/01/04 10:35:18;;;;;;;6.97;3.50;;;;;;;11.23;100.00;163500.09;5051328;28;20390;-58
2023/01/04 10:37:47;;;;;;;5.18;3.88;;;;;;;11.21;100.00;163494.69;5050346;28;20044;-58
2023/01/04 10:40:14;;;;;;;8.13;3.10;;;;;;;11.21;100.00;163494.69;5051504;28;20542;-58
2023/01/04 10:43:06;;;;;;;4.32;3.15;;;;;;;11.24;100.00;163502.81;5049893;28;20095;-58
2023/01/04 10:45:35;;;;;;;3.53;3.22;;;;;;;11.23;100.00;163500.09;5050425;28;20036;-58
2023/01/04 10:48:07;;;;;;;2.78;2.58;;;;;;;11.22;100.00;163497.38;5051685;28;20048;-58
2023/01/04 10:50:40;;;;;;;3.42;3.15;;;;;;;11.23;100.00;163500.09;5050206;28;20029;-58
2023/01/04 10:53:12;;;;;;;4.03;3.15;;;;;;;11.25;100.00;163505.50;5051253;28;20033;-59
2023/01/04 10:55:57;;;;;;;5.93;3.22;;;;;;;11.26;100.00;163508.22;5049627;28;20029;-58
2023/01/04 10:58:55;;;;;;;3.05;2.75;;;;;;;11.25;100.00;163505.50;5051284;28;20032;-58
2023/01/04 11:01:36;;;;;;;5.20;3.50;;;;;;;11.25;100.00;163505.50;5049473;28;20067;-58
2023/01/04 11:04:12;;;;;;;2.40;2.20;;;;;;;11.30;100.00;163519.00;5050930;28;20057;-58
2023/01/04 11:06:56;;;;;;;20.65;3.53;;;;;;;11.31;100.00;163521.72;5049911;28;20068;-58
2023/01/04 11:09:31;;;;;;;4.00;2.55;;;;;;;11.36;100.00;163535.19;5050893;28;20021;-58
2023/01/04 11:11:57;;;;;;;6.28;2.70;;;;;;;11.36;100.00;163535.19;5049327;28;20045;-58
2023/01/04 11:14:24;;;;;;;11.52;3.55;;;;;;;11.42;100.00;163551.44;5063042;28;20622;-58
2023/01/04 11:16:53;;;;;;;2.88;2.55;;;;;;;11.42;100.00;163550.06;5067955;28;20436;-58
2023/01/04 11:19:18;;;;;;;2.30;2.10;;;;;;;11.41;100.00;163548.75;5070460;28;20024;-58
2023/01/04 11:21:50;;;;;;;3.38;2.63;;;;;;;11.45;100.00;163556.81;5061757;28;20094;-58
2023/01/04 11:24:16;;;;;;;2.58;2.10;;;;;;;11.46;100.00;163560.91;5058123;28;20546;-58
2023/01/04 11:26:44;;;;;;;3.22;2.25;;;;;;;11.46;100.00;163559.50;5049900;28;20049;-58
2023/01/04 11:29:24;;;;;;;4.63;2.80;;;;;;;11.43;100.00;163554.09;5050548;28;20025;-58
2023/01/04 11:31:55;;;;;;;6.28;3.50;;;;;;;11.49;100.00;163567.63;5049403;28;20098;-58
2023/01/04 11:34:45;;;;;;;2.38;2.28;;;;;;;11.49;100.00;163567.63;5050181;28;20472;-58
2023/01/04 11:37:32;;;;;;;3.38;3.08;;;;;;;11.50;100.00;163570.34;5048900;28;20056;-58
2023/01/04 11:40:15;;;;;;;3.08;2.58;;;;;;;11.49;100.00;163567.63;5069347;28;20025;-58
2023/01/04 11:42:44;;;;;;;6.40;3.08;;;;;;;11.51;100.00;163573.00;5069402;28;20048;-58
2023/01/04 11:45:24;;;;;;;6.53;3.42;;;;;;;11.51;100.00;163574.38;5070473;28;20099;-58
2023/01/04 11:47:53;;;;;;;2.55;2.33;;;;;;;11.52;100.00;163575.72;5068984;28;20093;-58
2023/01/04 11:50:38;;;;;;;2.28;2.15;;;;;;;11.49;100.00;163568.97;5069227;28;20372;-55
2023/01/04 11:53:24;;;;;;;3.17;2.20;;;;;;;11.52;100.00;163577.09;5070677;28;20062;-58
2023/01/04 11:55:50;;;;;;;2.88;2.65;;;;;;;11.52;100.00;163575.72;5069163;28;20036;-58
2023/01/04 11:58:18;;;;;;;2.88;2.08;;;;;;;11.55;100.00;163583.84;5070376;28;20028;-58
2023/01/04 12:00:55;;;;;;;1.98;1.88;;;;;;;11.51;100.00;163573.00;5069478;28;20071;-58
2023/01/04 12:03:27;;;;;;;2.25;2.05;;;;;;;11.51;100.00;163573.00;5069947;28;20079;-58
2023/01/04 12:05:53;;;;;;;3.55;2.53;;;;;;;11.55;100.00;163583.84;5069027;28;20102;-58
2023/01/04 12:08:29;;;;;;;3.17;2.40;;;;;;;11.54;100.00;163581.13;5070424;28;20024;-58
2023/01/04 12:10:55;;;;;;;2.35;1.90;;;;;;;11.56;100.00;163586.53;5068942;28;20044;-58
2023/01/04 12:13:21;;;;;;;4.82;2.45;;;;;;;11.53;100.00;163579.81;5070406;28;20024;-58